createdAt,value
2018-03-28T00:01:04.310Z,6.83
2018-03-28T00:03:32.878Z,7.03
2018-03-28T00:06:00.770Z,9.77
2018-03-28T00:08:29.567Z,7.40
2018-03-28T00:10:57.644Z,8.00
2018-03-28T00:13:26.922Z,7.17
2018-03-28T00:15:55.529Z,6.83
2018-03-28T00:18:23.265Z,5.73
2018-03-28T00:20:51.316Z,5.40
2018-03-28T00:23:19.081Z,4.67
2018-03-28T00:25:47.158Z,4.43
2018-03-28T00:28:15.006Z,4.80
2018-03-28T00:30:43.525Z,3.63
2018-03-28T00:33:11.190Z,5.13
2018-03-28T00:35:39.147Z,5.33
2018-03-28T00:38:07.680Z,5.50
2018-03-28T00:40:35.428Z,4.30
2018-03-28T00:43:03.818Z,5.63
2018-03-28T00:45:31.692Z,4.53
2018-03-28T00:48:00.228Z,6.30
2018-03-28T00:50:28.088Z,6.10
2018-03-28T00:52:55.834Z,6.13
2018-03-28T00:55:23.758Z,5.70
2018-03-28T00:57:51.825Z,6.57
2018-03-28T01:00:19.827Z,6.60
2018-03-28T01:02:48.448Z,5.53
2018-03-28T01:05:16.442Z,6.30
2018-03-28T01:07:44.072Z,7.57
2018-03-28T01:10:13.350Z,7.40
2018-03-28T01:12:41.858Z,8.47
2018-03-28T01:15:10.253Z,6.67
2018-03-28T01:17:37.928Z,5.97
2018-03-28T01:20:05.612Z,6.10
2018-03-28T01:22:33.329Z,7.10
2018-03-28T01:25:01.841Z,7.73
2018-03-28T01:27:29.710Z,7.57
2018-03-28T01:29:58.628Z,7.13
2018-03-28T01:32:26.353Z,6.73
2018-03-28T01:34:54.799Z,9.20
2018-03-28T01:37:23.222Z,6.80
2018-03-28T01:39:50.823Z,6.33
2018-03-28T01:42:18.550Z,6.93
2018-03-28T01:44:46.300Z,5.90
2018-03-28T01:47:14.998Z,5.90
2018-03-28T01:49:42.745Z,5.93
2018-03-28T01:52:10.654Z,5.90
2018-03-28T01:54:38.620Z,6.60
2018-03-28T01:57:06.491Z,5.97
2018-03-28T01:59:35.705Z,6.67
2018-03-28T02:02:03.942Z,6.50
2018-03-28T02:04:33.556Z,6.47
2018-03-28T02:07:02.040Z,7.17
2018-03-28T02:09:29.725Z,5.60
2018-03-28T02:11:58.645Z,6.80
2018-03-28T02:14:27.265Z,5.23
2018-03-28T02:16:55.839Z,5.87
2018-03-28T02:19:23.647Z,6.37
2018-03-28T02:21:51.719Z,7.07
2018-03-28T02:24:20.102Z,6.30
2018-03-28T02:26:48.206Z,7.10
2018-03-28T02:29:16.202Z,6.53
2018-03-28T02:31:44.708Z,6.43
2018-03-28T02:34:13.464Z,6.97
2018-03-28T02:36:42.086Z,6.40
2018-03-28T02:39:09.744Z,7.53
2018-03-28T02:41:37.837Z,7.20
2018-03-28T02:44:05.574Z,5.20
2018-03-28T02:46:33.571Z,6.03
2018-03-28T02:49:01.995Z,6.33
2018-03-28T02:51:30.716Z,7.13
2018-03-28T02:53:59.350Z,6.37
2018-03-28T02:56:27.288Z,4.50
2018-03-28T02:58:56.017Z,4.43
2018-03-28T03:01:24.863Z,4.17
2018-03-28T03:03:52.582Z,4.93
2018-03-28T03:06:20.978Z,6.40
2018-03-28T03:08:48.736Z,5.83
2018-03-28T03:11:16.603Z,5.90
2018-03-28T03:13:45.115Z,5.27
2018-03-28T03:16:13.964Z,5.73
2018-03-28T03:18:41.875Z,5.90
2018-03-28T03:21:09.964Z,5.63
2018-03-28T03:23:37.933Z,5.80
2018-03-28T03:26:05.533Z,6.10
2018-03-28T03:28:33.408Z,6.00
2018-03-28T03:31:01.899Z,6.23
2018-03-28T03:33:29.837Z,6.17
2018-03-28T03:35:58.041Z,6.13
2018-03-28T03:38:25.933Z,5.40
2018-03-28T03:40:53.977Z,6.30
2018-03-28T03:43:21.903Z,5.97
2018-03-28T03:45:50.350Z,6.40
2018-03-28T03:48:18.196Z,4.57
2018-03-28T03:50:46.794Z,6.47
2018-03-28T03:53:14.862Z,6.13
2018-03-28T03:55:43.492Z,6.00
2018-03-28T03:58:11.601Z,6.23
2018-03-28T04:00:39.428Z,6.27
2018-03-28T04:03:08.266Z,6.37
2018-03-28T04:05:36.561Z,5.87
2018-03-28T04:08:04.466Z,6.70
2018-03-28T04:10:32.407Z,6.00
2018-03-28T04:13:00.295Z,6.67
2018-03-28T04:15:28.701Z,6.77
2018-03-28T04:17:57.080Z,5.70
2018-03-28T04:20:24.862Z,5.33
2018-03-28T04:22:52.723Z,6.17
2018-03-28T04:25:21.123Z,6.30
2018-03-28T04:27:48.959Z,5.73
2018-03-28T04:30:16.858Z,5.30
2018-03-28T04:32:44.837Z,5.67
2018-03-28T04:35:12.889Z,5.40
2018-03-28T04:37:40.829Z,5.37
2018-03-28T04:40:09.356Z,6.17
2018-03-28T04:42:37.413Z,5.50
2018-03-28T04:45:05.311Z,5.90
2018-03-28T04:47:33.399Z,7.07
2018-03-28T04:50:00.984Z,6.27
2018-03-28T04:52:28.708Z,5.47
2018-03-28T04:54:56.488Z,4.80
2018-03-28T04:57:24.974Z,5.90
2018-03-28T04:59:52.688Z,5.77
2018-03-28T05:02:21.474Z,5.33
2018-03-28T05:04:52.721Z,5.83
2018-03-28T05:07:20.756Z,6.20
2018-03-28T05:09:49.714Z,5.10
2018-03-28T05:12:17.533Z,6.17
2018-03-28T05:14:46.347Z,5.80
2018-03-28T05:17:15.197Z,6.67
2018-03-28T05:19:43.807Z,5.27
2018-03-28T05:22:11.782Z,6.30
2018-03-28T05:24:39.948Z,5.50
2018-03-28T05:27:07.769Z,5.63
2018-03-28T05:29:35.456Z,6.50
2018-03-28T05:32:03.219Z,5.63
2018-03-28T05:34:30.864Z,5.70
2018-03-28T05:36:58.875Z,5.33
2018-03-28T05:39:26.527Z,5.53
2018-03-28T05:41:54.515Z,6.33
2018-03-28T05:44:23.308Z,5.80
2018-03-28T05:46:50.890Z,5.70
2018-03-28T05:49:19.404Z,5.43
2018-03-28T05:51:47.138Z,4.53
2018-03-28T05:54:15.668Z,5.30
2018-03-28T05:56:45.096Z,6.50
2018-03-28T05:59:14.686Z,5.53
2018-03-28T06:01:43.027Z,5.73
2018-03-28T06:04:11.057Z,5.80
2018-03-28T06:09:15.292Z,5.50
2018-03-28T06:11:43.777Z,5.70
2018-03-28T06:14:13.616Z,5.90
2018-03-28T06:16:43.348Z,4.73
2018-03-28T06:19:12.547Z,5.63
2018-03-28T06:21:41.840Z,5.43
2018-03-28T06:24:11.500Z,5.20
2018-03-28T06:26:43.141Z,4.90
2018-03-28T06:29:12.240Z,5.73
2018-03-28T06:31:41.203Z,5.73
2018-03-28T06:34:10.021Z,5.37
2018-03-28T06:36:39.150Z,5.50
2018-03-28T06:39:08.484Z,5.77
2018-03-28T06:41:37.788Z,4.93
2018-03-28T06:44:09.693Z,5.70
2018-03-28T06:46:38.501Z,5.37
2018-03-28T06:49:10.128Z,5.00
2018-03-28T06:51:41.671Z,5.67
2018-03-28T06:54:11.556Z,4.80
2018-03-28T06:56:40.510Z,5.20
2018-03-28T06:59:10.185Z,4.73
2018-03-28T07:01:43.062Z,5.00
2018-03-28T07:04:13.176Z,5.03
2018-03-28T07:06:42.609Z,5.37
2018-03-28T07:09:12.183Z,5.40
2018-03-28T07:11:47.379Z,4.80
2018-03-28T07:14:18.128Z,5.23
2018-03-28T07:16:51.317Z,5.07
2018-03-28T07:19:19.444Z,4.70
2018-03-28T07:21:48.808Z,5.17
2018-03-28T07:24:19.619Z,4.73
2018-03-28T07:26:50.981Z,4.53
2018-03-28T07:29:20.605Z,5.10
2018-03-28T07:31:48.908Z,5.17
2018-03-28T07:34:17.449Z,4.63
2018-03-28T07:36:47.454Z,4.50
2018-03-28T07:39:18.106Z,5.30
2018-03-28T07:41:48.215Z,5.17
2018-03-28T07:44:17.678Z,5.17
2018-03-28T07:46:48.365Z,4.83
2018-03-28T07:49:17.587Z,4.67
2018-03-28T07:51:47.260Z,4.70
2018-03-28T07:54:17.237Z,4.97
2018-03-28T07:56:46.184Z,4.57
2018-03-28T07:59:14.977Z,4.70
2018-03-28T08:01:44.481Z,4.70
2018-03-28T08:04:13.249Z,5.30
2018-03-28T08:06:42.265Z,4.80
2018-03-28T08:09:11.719Z,4.67
2018-03-28T08:11:39.319Z,4.77
2018-03-28T08:14:06.913Z,4.60
2018-03-28T08:16:34.611Z,4.63
2018-03-28T08:19:02.475Z,5.67
2018-03-28T08:21:30.073Z,5.03
2018-03-28T08:23:57.910Z,5.20
2018-03-28T08:26:26.414Z,4.43
2018-03-28T08:28:55.869Z,5.00
2018-03-28T08:31:23.519Z,4.60
2018-03-28T08:33:51.935Z,4.73
2018-03-28T08:36:19.685Z,4.80
2018-03-28T08:38:47.750Z,5.27
2018-03-28T08:41:15.393Z,4.67
2018-03-28T08:43:43.376Z,4.67
2018-03-28T08:46:11.416Z,4.80
2018-03-28T08:48:39.060Z,3.90
2018-03-28T08:51:06.775Z,5.23
2018-03-28T08:53:34.370Z,4.60
2018-03-28T08:56:03.021Z,4.50
2018-03-28T08:58:30.802Z,4.27
2018-03-28T09:00:58.698Z,4.50
2018-03-28T09:03:26.204Z,4.97
2018-03-28T09:05:54.384Z,4.90
2018-03-28T09:08:22.004Z,4.57
2018-03-28T09:10:49.873Z,4.53
2018-03-28T09:13:18.527Z,5.23
2018-03-28T09:15:46.643Z,5.20
2018-03-28T09:18:14.989Z,5.53
2018-03-28T09:20:42.923Z,5.63
2018-03-28T09:23:10.610Z,5.33
2018-03-28T09:25:38.738Z,6.23
2018-03-28T09:28:06.496Z,6.03
2018-03-28T09:30:34.573Z,5.80
2018-03-28T09:33:02.590Z,7.40
2018-03-28T09:35:30.181Z,6.20
2018-03-28T09:37:57.813Z,6.50
2018-03-28T09:40:25.728Z,6.37
2018-03-28T09:42:53.465Z,7.03
2018-03-28T09:45:21.458Z,7.67
2018-03-28T09:47:49.430Z,6.70
2018-03-28T09:50:17.616Z,6.50
2018-03-28T09:52:46.007Z,7.07
2018-03-28T09:55:13.835Z,5.93
2018-03-28T09:57:42.203Z,6.00
2018-03-28T10:00:09.914Z,6.90
2018-03-28T10:02:37.649Z,6.13
2018-03-28T10:05:05.523Z,6.47
2018-03-28T10:07:33.698Z,6.57
2018-03-28T10:10:01.613Z,6.93
2018-03-28T10:12:29.876Z,5.83
2018-03-28T10:14:57.761Z,6.30
2018-03-28T10:17:25.448Z,6.47
2018-03-28T10:19:53.210Z,6.60
2018-03-28T10:22:22.125Z,5.53
2018-03-28T10:24:49.875Z,6.37
2018-03-28T10:27:18.434Z,5.77
2018-03-28T10:29:46.968Z,5.70
2018-03-28T10:32:14.949Z,6.40
2018-03-28T10:34:43.057Z,5.57
2018-03-28T10:37:10.693Z,6.60
2018-03-28T10:39:38.933Z,6.80
2018-03-28T10:42:06.646Z,5.87
2018-03-28T10:44:34.635Z,8.00
2018-03-28T10:47:02.909Z,7.27
2018-03-28T10:49:31.323Z,8.30
2018-03-28T10:51:59.159Z,9.20
2018-03-28T10:54:27.465Z,9.63
2018-03-28T10:56:55.751Z,10.33
2018-03-28T10:59:23.404Z,11.13
2018-03-28T11:01:51.157Z,9.17
2018-03-28T11:04:19.636Z,9.00
2018-03-28T11:06:47.541Z,9.57
2018-03-28T11:09:16.074Z,9.17
2018-03-28T11:11:43.774Z,9.57
2018-03-28T11:14:11.532Z,9.53
2018-03-28T11:16:39.109Z,9.03
2018-03-28T11:19:06.726Z,9.20
2018-03-28T11:21:34.793Z,9.20
2018-03-28T11:24:03.415Z,8.60
2018-03-28T11:26:31.062Z,8.50
2018-03-28T11:28:59.758Z,8.37
2018-03-28T11:31:28.445Z,7.60
2018-03-28T11:33:56.260Z,8.70
2018-03-28T11:36:24.701Z,7.77
2018-03-28T11:38:52.581Z,7.57
2018-03-28T11:41:20.644Z,7.63
2018-03-28T11:43:48.388Z,7.87
2018-03-28T11:46:16.101Z,7.50
2018-03-28T11:48:43.955Z,6.80
2018-03-28T11:51:11.677Z,7.80
2018-03-28T11:53:39.363Z,7.27
2018-03-28T11:56:07.245Z,7.57
2018-03-28T11:58:35.672Z,7.87
2018-03-28T12:01:03.362Z,6.73
2018-03-28T12:03:31.027Z,8.13
2018-03-28T12:05:58.653Z,7.10
2018-03-28T12:08:27.021Z,7.50
2018-03-28T12:10:55.263Z,7.30
2018-03-28T12:13:23.011Z,7.73
2018-03-28T12:15:51.000Z,6.70
2018-03-28T12:18:19.690Z,7.83
2018-03-28T12:20:48.160Z,7.13
2018-03-28T12:23:16.268Z,7.13
2018-03-28T12:25:44.199Z,7.30
2018-03-28T12:28:12.817Z,6.97
2018-03-28T12:30:42.692Z,5.93
2018-03-28T12:33:11.037Z,6.10
2018-03-28T12:35:39.140Z,6.40
2018-03-28T12:38:07.263Z,6.57
2018-03-28T12:40:35.791Z,5.80
2018-03-28T12:43:03.847Z,6.93
2018-03-28T12:45:32.814Z,6.40
2018-03-28T12:48:00.466Z,6.40
2018-03-28T12:50:28.158Z,7.03
2018-03-28T12:52:56.643Z,6.90
2018-03-28T12:55:24.367Z,5.70
2018-03-28T12:57:52.840Z,6.03
2018-03-28T13:00:20.980Z,5.97
2018-03-28T13:02:48.758Z,7.00
2018-03-28T13:05:16.915Z,6.40
2018-03-28T13:07:46.628Z,6.37
2018-03-28T13:10:14.639Z,6.13
2018-03-28T13:12:42.917Z,5.40
2018-03-28T13:15:10.876Z,6.30
2018-03-28T13:17:39.378Z,6.10
2018-03-28T13:20:07.167Z,5.40
2018-03-28T13:22:35.986Z,6.40
2018-03-28T13:25:03.617Z,5.90
2018-03-28T13:27:31.402Z,6.43
2018-03-28T13:29:59.812Z,5.70
2018-03-28T13:32:28.097Z,5.77
2018-03-28T13:34:55.687Z,5.70
2018-03-28T13:37:25.188Z,6.63
2018-03-28T13:39:52.994Z,6.30
2018-03-28T13:42:22.056Z,7.00
2018-03-28T13:44:50.074Z,6.20
2018-03-28T13:47:18.285Z,6.53
2018-03-28T13:49:46.085Z,7.00
2018-03-28T13:52:14.587Z,6.40
2018-03-28T13:54:42.691Z,6.03
2018-03-28T13:57:11.630Z,6.67
2018-03-28T13:59:39.464Z,6.33
2018-03-28T14:02:07.930Z,7.73
2018-03-28T14:04:35.908Z,5.90
2018-03-28T14:07:03.524Z,6.50
2018-03-28T14:09:32.020Z,6.13
2018-03-28T14:12:01.563Z,6.90
2018-03-28T14:14:30.066Z,10.80
2018-03-28T14:16:58.833Z,12.57
2018-03-28T14:19:26.969Z,12.40
2018-03-28T14:21:55.705Z,13.30
2018-03-28T14:24:23.251Z,12.97
2018-03-28T14:26:50.907Z,12.90
2018-03-28T14:29:18.565Z,13.90
2018-03-28T14:31:47.399Z,13.50
2018-03-28T14:34:15.020Z,12.60
2018-03-28T14:36:42.987Z,13.20
2018-03-28T14:39:11.563Z,14.73
2018-03-28T14:41:40.247Z,11.77
2018-03-28T14:44:08.006Z,11.37
2018-03-28T14:46:35.872Z,12.13
2018-03-28T14:49:03.562Z,11.63
2018-03-28T14:51:32.202Z,12.80
2018-03-28T14:54:00.171Z,12.47
2018-03-28T14:56:28.094Z,11.83
2018-03-28T14:58:55.857Z,12.40
2018-03-28T15:01:23.495Z,10.80
2018-03-28T15:03:51.325Z,12.80
2018-03-28T15:06:19.026Z,12.43
2018-03-28T15:08:46.816Z,12.43
2018-03-28T15:11:15.649Z,12.27
2018-03-28T15:13:44.527Z,11.00
2018-03-28T15:16:12.297Z,11.17
2018-03-28T15:18:40.782Z,12.30
2018-03-28T15:21:09.984Z,10.90
2018-03-28T15:23:37.676Z,12.70
2018-03-28T15:26:05.380Z,12.77
2018-03-28T15:28:33.888Z,12.53
2018-03-28T15:31:01.617Z,12.73
2018-03-28T15:33:29.204Z,14.23
2018-03-28T15:35:57.358Z,13.20
2018-03-28T15:38:25.856Z,14.20
2018-03-28T15:40:53.789Z,13.00
2018-03-28T15:43:21.704Z,12.60
2018-03-28T15:45:49.323Z,13.83
2018-03-28T15:48:16.940Z,12.40
2018-03-28T15:50:45.724Z,13.13
2018-03-28T15:53:13.857Z,12.63
2018-03-28T15:55:41.704Z,13.90
2018-03-28T15:58:10.540Z,14.43
2018-03-28T16:00:38.654Z,13.60
2018-03-28T16:03:06.255Z,15.20
2018-03-28T16:05:35.161Z,17.80
2018-03-28T16:08:02.819Z,14.83
2018-03-28T16:10:30.947Z,15.53
2018-03-28T16:12:58.721Z,16.27
2018-03-28T16:15:26.317Z,13.30
2018-03-28T16:17:54.182Z,15.83
2018-03-28T16:20:22.057Z,15.10
2018-03-28T16:22:49.915Z,15.57
2018-03-28T16:25:17.693Z,14.33
2018-03-28T16:27:45.838Z,14.83
2018-03-28T16:30:13.891Z,15.93
2018-03-28T16:32:41.947Z,16.00
2018-03-28T16:35:09.711Z,17.30
2018-03-28T16:37:37.371Z,16.70
2018-03-28T16:40:05.377Z,16.20
2018-03-28T16:42:33.345Z,16.53
2018-03-28T16:45:01.822Z,15.67
2018-03-28T16:47:29.633Z,14.33
2018-03-28T16:49:57.533Z,14.90
2018-03-28T16:52:27.097Z,13.57
2018-03-28T16:54:56.069Z,13.70
2018-03-28T16:57:23.824Z,15.70
2018-03-28T16:59:52.411Z,13.87
2018-03-28T17:02:21.121Z,14.83
2018-03-28T17:04:48.854Z,12.90
2018-03-28T17:07:16.488Z,12.53
2018-03-28T17:09:44.133Z,13.07
2018-03-28T17:12:11.877Z,13.87
2018-03-28T17:14:40.436Z,12.50
2018-03-28T17:17:08.780Z,12.13
2018-03-28T17:19:36.572Z,12.03
2018-03-28T17:22:05.242Z,12.30
2018-03-28T17:24:32.771Z,13.30
2018-03-28T17:27:00.488Z,11.50
2018-03-28T17:29:28.219Z,12.17
2018-03-28T17:31:56.745Z,12.70
2018-03-28T17:34:25.016Z,11.60
2018-03-28T17:36:52.745Z,12.93
2018-03-28T17:39:20.429Z,12.10
2018-03-28T17:41:49.815Z,13.70
2018-03-28T17:44:19.294Z,13.93
2018-03-28T17:46:48.328Z,13.73
2018-03-28T17:49:17.095Z,14.40
2018-03-28T17:51:45.492Z,14.77
2018-03-28T17:54:13.585Z,14.80
2018-03-28T17:56:41.355Z,15.00
2018-03-28T17:59:09.090Z,16.47
2018-03-28T18:01:37.189Z,15.30
2018-03-28T18:04:05.015Z,17.07
2018-03-28T18:06:32.693Z,16.70
2018-03-28T18:09:00.469Z,15.37
2018-03-28T18:11:29.140Z,15.20
2018-03-28T18:13:57.706Z,15.57
2018-03-28T18:16:26.375Z,14.03
2018-03-28T18:18:54.819Z,14.33
2018-03-28T18:21:23.583Z,15.73
2018-03-28T18:23:52.225Z,14.47
2018-03-28T18:26:20.901Z,15.10
2018-03-28T18:28:49.536Z,15.27
2018-03-28T18:31:19.481Z,15.47
2018-03-28T18:33:48.402Z,15.73
2018-03-28T18:36:16.655Z,15.20
2018-03-28T18:38:44.530Z,15.13
2018-03-28T18:41:12.784Z,13.80
2018-03-28T18:43:42.210Z,14.30
2018-03-28T18:46:10.528Z,13.60
2018-03-28T18:48:38.456Z,13.27
2018-03-28T18:51:06.607Z,14.40
2018-03-28T18:53:34.243Z,13.17
2018-03-28T18:56:02.030Z,13.83
2018-03-28T18:58:30.452Z,12.33
2018-03-28T19:00:58.900Z,11.40
2018-03-28T19:03:26.817Z,11.87
2018-03-28T19:05:55.449Z,11.63
2018-03-28T19:08:23.163Z,12.13
2018-03-28T19:10:50.785Z,11.43
2018-03-28T19:13:18.415Z,11.03
2018-03-28T19:15:46.160Z,9.77
2018-03-28T19:18:13.855Z,9.57
2018-03-28T19:20:41.534Z,10.00
2018-03-28T19:23:09.988Z,9.80
2018-03-28T19:25:37.570Z,8.10
2018-03-28T19:28:08.632Z,8.90
2018-03-28T19:30:36.396Z,9.60
2018-03-28T19:33:04.159Z,8.67
2018-03-28T19:35:32.769Z,8.53
2018-03-28T19:38:00.625Z,9.30
2018-03-28T19:40:28.537Z,9.40
2018-03-28T19:42:56.295Z,7.37
2018-03-28T19:45:24.204Z,8.20
2018-03-28T19:47:53.198Z,8.13
2018-03-28T19:50:21.182Z,6.77
2018-03-28T19:52:49.591Z,7.77
2018-03-28T19:55:17.339Z,7.47
2018-03-28T19:57:45.545Z,6.67
2018-03-28T20:00:14.011Z,7.30
2018-03-28T20:02:42.278Z,7.47
2018-03-28T20:05:09.977Z,6.77
2018-03-28T20:07:37.749Z,7.33
2018-03-28T20:10:05.656Z,6.73
2018-03-28T20:12:34.150Z,6.40
2018-03-28T20:15:02.457Z,6.90
2018-03-28T20:17:30.237Z,6.97
2018-03-28T20:19:58.008Z,6.70
2018-03-28T20:22:25.723Z,6.97
2018-03-28T20:24:53.446Z,7.43
2018-03-28T20:27:21.275Z,6.80
2018-03-28T20:29:49.195Z,6.43
2018-03-28T20:32:16.890Z,6.03
2018-03-28T20:34:45.848Z,7.20
2018-03-28T20:37:14.219Z,6.83
2018-03-28T20:39:41.956Z,6.57
2018-03-28T20:42:09.857Z,6.80
2018-03-28T20:44:37.744Z,6.60
2018-03-28T20:47:05.812Z,6.70
2018-03-28T20:49:33.922Z,6.67
2018-03-28T20:52:01.502Z,5.93
2018-03-28T20:54:29.429Z,6.60
2018-03-28T20:56:57.213Z,6.00
2018-03-28T20:59:25.227Z,6.70
2018-03-28T21:01:54.930Z,7.10
2018-03-28T21:04:22.889Z,6.80
2018-03-28T21:06:51.710Z,6.13
2018-03-28T21:09:23.549Z,6.30
2018-03-28T21:11:51.255Z,5.40
2018-03-28T21:14:20.181Z,5.83
2018-03-28T21:16:48.108Z,6.10
2018-03-28T21:19:17.616Z,6.03
2018-03-28T21:24:25.190Z,5.53
2018-03-28T21:26:53.197Z,6.50
2018-03-28T21:29:20.985Z,6.30
2018-03-28T21:31:49.633Z,5.20
2018-03-28T21:34:17.686Z,5.90
2018-03-28T21:36:45.737Z,6.10
2018-03-28T21:39:13.365Z,6.67
2018-03-28T21:41:41.489Z,5.83
2018-03-28T21:44:10.560Z,6.50
2018-03-28T21:46:38.359Z,6.03
2018-03-28T21:49:05.843Z,6.30
2018-03-28T21:51:33.657Z,6.50
2018-03-28T21:54:01.673Z,6.20
2018-03-28T21:56:29.967Z,6.50
2018-03-28T21:58:57.733Z,6.77
2018-03-28T22:01:26.344Z,6.00
2018-03-28T22:03:54.165Z,5.97
2018-03-28T22:06:21.866Z,6.43
2018-03-28T22:08:49.745Z,7.80
2018-03-28T22:11:17.649Z,5.70
2018-03-28T22:13:46.116Z,4.90
2018-03-28T22:16:14.056Z,4.87
2018-03-28T22:18:41.743Z,5.77
2018-03-28T22:21:09.503Z,5.80
2018-03-28T22:23:37.146Z,6.30
2018-03-28T22:26:05.134Z,6.10
2018-03-28T22:28:34.737Z,5.93
2018-03-28T22:31:02.598Z,6.43
2018-03-28T22:33:30.816Z,6.27
2018-03-28T22:35:59.719Z,7.37
2018-03-28T22:38:27.899Z,6.60
2018-03-28T22:40:57.339Z,7.33
2018-03-28T22:43:25.499Z,6.90
2018-03-28T22:45:53.295Z,7.23
2018-03-28T22:48:20.887Z,7.10
2018-03-28T22:50:49.235Z,6.47
2018-03-28T22:53:17.082Z,7.30
2018-03-28T22:55:45.484Z,7.43
2018-03-28T22:58:13.484Z,7.53
2018-03-28T23:00:41.406Z,7.10
2018-03-28T23:03:09.465Z,7.03
2018-03-28T23:05:37.597Z,8.13
2018-03-28T23:08:05.281Z,7.07
2018-03-28T23:10:33.339Z,9.13
2018-03-28T23:13:01.345Z,8.03
2018-03-28T23:15:29.830Z,8.50
2018-03-28T23:17:58.480Z,9.40
2018-03-28T23:20:26.646Z,10.63
2018-03-28T23:22:54.748Z,9.27
2018-03-28T23:25:23.767Z,8.00
2018-03-28T23:27:51.921Z,8.97
2018-03-28T23:30:19.917Z,7.17
2018-03-28T23:32:48.256Z,7.60
2018-03-28T23:35:16.205Z,9.60
2018-03-28T23:37:44.585Z,9.40
2018-03-28T23:40:12.611Z,10.47
2018-03-28T23:42:41.098Z,9.63
2018-03-28T23:45:09.112Z,9.47
2018-03-28T23:47:37.093Z,10.20
2018-03-28T23:50:05.037Z,8.80
2018-03-28T23:52:32.760Z,8.33
2018-03-28T23:55:01.189Z,9.10
2018-03-28T23:57:29.973Z,8.10
2018-03-28T23:59:59.044Z,7.13
